createdAt,value
2019-02-22T00:01:17.677Z,98136.49
2019-02-22T00:02:24.421Z,98138.45
2019-02-22T00:03:28.057Z,98132.80
2019-02-22T00:04:31.689Z,98131.22
2019-02-22T00:05:35.330Z,98133.12
2019-02-22T00:06:38.999Z,98132.60
2019-02-22T00:07:42.636Z,98131.52
2019-02-22T00:08:46.272Z,98133.32
2019-02-22T00:09:49.994Z,98132.21
2019-02-22T00:10:56.631Z,98129.95
2019-02-22T00:12:00.426Z,98132.79
2019-02-22T00:13:04.092Z,98129.95
2019-02-22T00:14:08.148Z,98126.77
2019-02-22T00:15:11.784Z,98127.02
2019-02-22T00:16:15.423Z,98121.94
2019-02-22T00:17:19.151Z,98120.70
2019-02-22T00:18:22.802Z,98120.78
2019-02-22T00:19:26.367Z,98121.36
2019-02-22T00:20:30.011Z,98124.52
2019-02-22T00:21:33.649Z,98124.28
2019-02-22T00:22:37.252Z,98123.22
2019-02-22T00:23:40.898Z,98125.78
2019-02-22T00:24:44.546Z,98124.13
2019-02-22T00:25:48.183Z,98119.30
2019-02-22T00:26:51.824Z,98128.17
2019-02-22T00:27:55.467Z,98119.79
2019-02-22T00:28:59.115Z,98122.97
2019-02-22T00:30:02.745Z,98117.98
2019-02-22T00:31:06.467Z,98118.55
2019-02-22T00:32:10.149Z,98109.18
2019-02-22T00:33:14.209Z,98107.94
2019-02-22T00:34:17.873Z,98103.95
2019-02-22T00:35:21.487Z,98103.61
2019-02-22T00:36:25.119Z,98105.22
2019-02-22T00:37:28.757Z,98107.94
2019-02-22T00:38:32.426Z,98100.77
2019-02-22T00:39:36.053Z,98103.07
2019-02-22T00:40:39.686Z,98102.00
2019-02-22T00:41:43.248Z,98100.02
2019-02-22T00:42:46.899Z,98097.45
2019-02-22T00:43:50.604Z,98097.73
2019-02-22T00:44:54.187Z,98090.54
2019-02-22T00:45:57.816Z,98087.33
2019-02-22T00:47:01.381Z,98087.71
2019-02-22T00:48:05.019Z,98086.23
2019-02-22T00:49:08.698Z,98084.45
2019-02-22T00:50:12.342Z,98081.00
2019-02-22T00:51:16.000Z,98083.30
2019-02-22T00:52:19.642Z,98074.78
2019-02-22T00:53:23.563Z,98079.70
2019-02-22T00:54:27.234Z,98075.74
2019-02-22T00:55:30.867Z,98074.64
2019-02-22T00:56:34.583Z,98073.23
2019-02-22T00:57:38.227Z,98074.48
2019-02-22T00:58:41.863Z,98071.61
2019-02-22T00:59:45.459Z,98066.84
2019-02-22T01:00:49.097Z,98065.44
2019-02-22T01:01:52.731Z,98065.44
2019-02-22T01:02:56.386Z,98061.77
2019-02-22T01:04:00.014Z,98065.94
2019-02-22T01:05:03.688Z,98065.67
2019-02-22T01:06:07.260Z,98065.05
2019-02-22T01:07:10.899Z,98058.11
2019-02-22T01:08:14.567Z,98060.94
2019-02-22T01:09:18.220Z,98062.28
2019-02-22T01:10:30.813Z,98059.53
2019-02-22T01:11:27.235Z,98060.48
2019-02-22T01:12:30.874Z,98056.18
2019-02-22T01:13:34.595Z,98047.72
2019-02-22T01:14:38.549Z,98044.50
2019-02-22T01:15:42.596Z,98041.43
2019-02-22T01:16:46.231Z,98038.34
2019-02-22T01:17:49.864Z,98036.05
2019-02-22T01:18:53.446Z,98036.94
2019-02-22T01:19:57.080Z,98038.48
2019-02-22T01:21:00.744Z,98040.02
2019-02-22T01:22:04.371Z,98045.21
2019-02-22T01:23:08.006Z,98037.17
2019-02-22T01:24:11.992Z,98035.44
2019-02-22T01:25:15.630Z,98037.69
2019-02-22T01:26:19.300Z,98035.25
2019-02-22T01:27:22.936Z,98030.75
2019-02-22T01:28:26.607Z,98032.87
2019-02-22T01:29:30.205Z,98029.59
2019-02-22T01:30:33.780Z,98026.25
2019-02-22T01:31:37.449Z,98027.69
2019-02-22T01:32:41.172Z,98027.52
2019-02-22T01:33:44.741Z,98028.64
2019-02-22T01:34:48.382Z,98027.03
2019-02-22T01:35:52.014Z,98028.55
2019-02-22T01:36:55.620Z,98025.40
2019-02-22T01:37:59.255Z,98023.79
2019-02-22T01:39:04.532Z,98018.63
2019-02-22T01:40:10.449Z,98015.53
2019-02-22T01:41:14.081Z,98024.97
2019-02-22T01:42:17.754Z,98019.95
2019-02-22T01:43:21.323Z,98014.45
2019-02-22T01:44:25.033Z,98019.50
2019-02-22T01:45:29.287Z,98019.15
2019-02-22T01:46:33.219Z,98023.16
2019-02-22T01:47:36.893Z,98018.47
2019-02-22T01:48:40.525Z,98018.20
2019-02-22T01:49:44.090Z,98017.66
2019-02-22T01:50:47.724Z,98015.56
2019-02-22T01:51:51.364Z,98009.69
2019-02-22T01:52:55.032Z,98008.42
2019-02-22T01:53:58.986Z,98010.66
2019-02-22T01:55:02.629Z,98013.86
2019-02-22T01:56:06.194Z,98011.86
2019-02-22T01:57:09.843Z,98009.89
2019-02-22T01:58:13.501Z,98008.68
2019-02-22T01:59:17.148Z,98008.95
2019-02-22T02:00:20.867Z,98006.73
2019-02-22T02:01:24.495Z,98008.72
2019-02-22T02:02:28.203Z,98007.60
2019-02-22T02:03:31.900Z,98013.91
2019-02-22T02:04:35.549Z,98014.91
2019-02-22T02:05:39.183Z,98007.73
2019-02-22T02:06:42.832Z,98009.44
2019-02-22T02:07:46.469Z,98007.41
2019-02-22T02:08:50.142Z,98002.36
2019-02-22T02:09:53.776Z,98004.27
2019-02-22T02:10:57.441Z,98003.08
2019-02-22T02:12:02.082Z,97999.92
2019-02-22T02:13:05.798Z,98004.20
2019-02-22T02:14:09.536Z,98003.27
2019-02-22T02:15:13.439Z,98001.63
2019-02-22T02:16:17.097Z,98002.56
2019-02-22T02:17:21.057Z,97999.06
2019-02-22T02:18:24.691Z,98000.86
2019-02-22T02:19:28.382Z,97998.52
2019-02-22T02:20:32.430Z,97997.71
2019-02-22T02:21:36.115Z,97994.37
2019-02-22T02:22:39.751Z,97996.27
2019-02-22T02:23:43.390Z,98002.08
2019-02-22T02:24:47.073Z,98000.77
2019-02-22T02:25:50.729Z,98001.28
2019-02-22T02:26:54.370Z,97999.92
2019-02-22T02:27:58.009Z,97999.09
2019-02-22T02:29:01.724Z,97994.64
2019-02-22T02:30:07.958Z,97995.67
2019-02-22T02:31:11.588Z,97996.42
2019-02-22T02:32:15.238Z,97997.30
2019-02-22T02:33:19.147Z,97995.20
2019-02-22T02:34:22.757Z,97993.47
2019-02-22T02:35:26.850Z,97986.59
2019-02-22T02:36:30.497Z,97990.38
2019-02-22T02:37:34.137Z,97991.95
2019-02-22T02:38:38.104Z,97993.53
2019-02-22T02:39:41.733Z,97992.15
2019-02-22T02:40:45.424Z,97986.27
2019-02-22T02:41:49.204Z,97991.06
2019-02-22T02:42:52.886Z,97986.66
2019-02-22T02:43:56.638Z,97987.39
2019-02-22T02:45:00.558Z,97986.66
2019-02-22T02:46:04.234Z,97985.43
2019-02-22T02:47:07.877Z,97986.55
2019-02-22T02:48:11.524Z,97990.80
2019-02-22T02:49:15.156Z,97985.04
2019-02-22T02:50:18.796Z,97984.30
2019-02-22T02:51:22.480Z,97980.77
2019-02-22T02:52:26.123Z,97982.22
2019-02-22T02:53:29.855Z,97978.88
2019-02-22T02:54:33.514Z,97978.55
2019-02-22T02:55:37.152Z,97981.45
2019-02-22T02:56:40.827Z,97967.24
2019-02-22T02:57:44.465Z,97973.28
2019-02-22T02:58:48.097Z,97968.02
2019-02-22T02:59:51.741Z,97972.31
2019-02-22T03:00:55.385Z,97975.43
2019-02-22T03:01:59.227Z,97974.66
2019-02-22T03:03:02.874Z,97975.95
2019-02-22T03:04:06.511Z,97977.97
2019-02-22T03:05:10.141Z,97977.56
2019-02-22T03:06:21.393Z,97976.44
2019-02-22T03:07:26.803Z,97980.58
2019-02-22T03:08:32.078Z,97977.03
2019-02-22T03:09:35.661Z,97982.02
2019-02-22T03:10:39.301Z,97981.61
2019-02-22T03:11:42.947Z,97978.41
2019-02-22T03:12:46.620Z,97977.88
2019-02-22T03:13:50.258Z,97970.67
2019-02-22T03:14:53.908Z,97974.20
2019-02-22T03:15:57.549Z,97964.98
2019-02-22T03:17:01.196Z,97976.06
2019-02-22T03:18:04.867Z,97974.20
2019-02-22T03:19:08.505Z,97971.72
2019-02-22T03:20:12.333Z,97971.56
2019-02-22T03:21:15.973Z,97965.30
2019-02-22T03:22:19.612Z,97966.11
2019-02-22T03:23:23.650Z,97963.38
2019-02-22T03:24:27.660Z,97958.72
2019-02-22T03:25:31.304Z,97953.87
2019-02-22T03:26:34.945Z,97960.96
2019-02-22T03:27:38.582Z,97954.99
2019-02-22T03:28:42.298Z,97955.57
2019-02-22T03:29:45.966Z,97951.75
2019-02-22T03:30:49.591Z,97953.59
2019-02-22T03:31:53.238Z,97949.09
2019-02-22T03:32:56.888Z,97951.44
2019-02-22T03:34:00.567Z,97952.46
2019-02-22T03:35:05.040Z,97953.58
2019-02-22T03:36:08.742Z,97959.73
2019-02-22T03:37:12.311Z,97957.61
2019-02-22T03:38:15.952Z,97957.13
2019-02-22T03:39:19.627Z,97960.83
2019-02-22T03:40:23.347Z,97961.45
2019-02-22T03:41:32.961Z,97957.55
2019-02-22T03:42:32.358Z,97953.55
2019-02-22T03:43:35.952Z,97949.22
2019-02-22T03:44:39.620Z,97950.83
2019-02-22T03:45:43.257Z,97949.92
2019-02-22T03:46:46.824Z,97950.39
2019-02-22T03:47:50.473Z,97946.62
2019-02-22T03:48:54.105Z,97948.68
2019-02-22T03:49:58.179Z,97944.00
2019-02-22T03:51:01.821Z,97940.89
2019-02-22T03:52:19.165Z,97947.39
2019-02-22T03:53:27.132Z,97951.05
2019-02-22T03:54:30.769Z,97950.83
2019-02-22T03:55:34.439Z,97950.21
2019-02-22T03:56:38.156Z,97943.63
2019-02-22T03:57:41.800Z,97942.42
2019-02-22T03:58:45.448Z,97942.02
2019-02-22T03:59:51.236Z,97937.97
2019-02-22T04:00:54.662Z,97939.35
2019-02-22T04:01:58.290Z,97936.43
2019-02-22T04:03:01.929Z,97943.63
2019-02-22T04:04:05.679Z,97937.56
2019-02-22T04:05:09.423Z,97939.20
2019-02-22T04:06:13.102Z,97934.23
2019-02-22T04:07:16.880Z,97929.99
2019-02-22T04:08:20.529Z,97931.86
2019-02-22T04:09:24.473Z,97928.78
2019-02-22T04:10:28.055Z,97922.48
2019-02-22T04:11:31.703Z,97923.48
2019-02-22T04:12:35.390Z,97922.78
2019-02-22T04:13:39.039Z,97920.73
2019-02-22T04:14:43.149Z,97924.94
2019-02-22T04:15:46.866Z,97920.44
2019-02-22T04:16:50.477Z,97921.88
2019-02-22T04:17:54.101Z,97918.44
2019-02-22T04:18:57.695Z,97910.14
2019-02-22T04:20:01.452Z,97918.05
2019-02-22T04:21:05.102Z,97912.73
2019-02-22T04:22:08.780Z,97910.20
2019-02-22T04:23:12.430Z,97905.19
2019-02-22T04:24:16.383Z,97900.31
2019-02-22T04:25:20.027Z,97903.63
2019-02-22T04:26:23.673Z,97902.50
2019-02-22T04:27:27.342Z,97902.81
2019-02-22T04:28:30.983Z,97904.98
2019-02-22T04:29:34.628Z,97908.28
2019-02-22T04:30:38.275Z,97901.41
2019-02-22T04:31:41.915Z,97903.31
2019-02-22T04:32:45.577Z,97905.47
2019-02-22T04:33:49.218Z,97906.38
2019-02-22T04:34:52.945Z,97903.75
2019-02-22T04:35:56.788Z,97908.28
2019-02-22T04:37:00.360Z,97911.02
2019-02-22T04:38:04.031Z,97898.78
2019-02-22T04:39:07.872Z,97901.22
2019-02-22T04:40:11.586Z,97900.42
2019-02-22T04:41:15.227Z,97894.20
2019-02-22T04:42:18.860Z,97896.25
2019-02-22T04:43:22.535Z,97898.30
2019-02-22T04:44:26.186Z,97892.20
2019-02-22T04:45:29.919Z,97890.48
2019-02-22T04:46:33.984Z,97887.67
2019-02-22T04:47:37.630Z,97878.35
2019-02-22T04:48:41.310Z,97878.09
2019-02-22T04:49:44.908Z,97878.94
2019-02-22T04:50:48.954Z,97877.24
2019-02-22T04:51:52.597Z,97875.80
2019-02-22T04:52:56.167Z,97875.07
2019-02-22T04:53:59.767Z,97875.10
2019-02-22T04:55:03.796Z,97876.61
2019-02-22T04:56:07.451Z,97877.19
2019-02-22T04:57:11.022Z,97864.28
2019-02-22T04:58:14.672Z,97871.86
2019-02-22T04:59:18.390Z,97868.71
2019-02-22T05:00:22.035Z,97869.84
2019-02-22T05:01:25.697Z,97874.36
2019-02-22T05:02:29.332Z,97874.27
2019-02-22T05:03:32.971Z,97872.18
2019-02-22T05:04:36.706Z,97871.35
2019-02-22T05:05:40.339Z,97866.17
2019-02-22T05:06:43.985Z,97869.84
2019-02-22T05:07:47.540Z,97862.13
2019-02-22T05:08:51.179Z,97860.81
2019-02-22T05:09:54.855Z,97861.94
2019-02-22T05:10:58.501Z,97860.40
2019-02-22T05:12:10.477Z,97861.00
2019-02-22T05:13:07.438Z,97866.80
2019-02-22T05:14:11.087Z,97863.77
2019-02-22T05:15:14.802Z,97855.23
2019-02-22T05:16:18.483Z,97857.45
2019-02-22T05:17:22.477Z,97851.03
2019-02-22T05:18:26.045Z,97856.48
2019-02-22T05:19:29.690Z,97852.94
2019-02-22T05:20:33.360Z,97845.44
2019-02-22T05:21:37.001Z,97841.70
2019-02-22T05:22:40.639Z,97845.23
2019-02-22T05:23:44.343Z,97847.64
2019-02-22T05:24:47.983Z,97851.94
2019-02-22T05:25:51.666Z,97851.31
2019-02-22T05:26:55.298Z,97854.94
2019-02-22T05:27:58.947Z,97849.39
2019-02-22T05:29:02.580Z,97856.15
2019-02-22T05:30:08.128Z,97854.03
2019-02-22T05:31:11.723Z,97858.56
2019-02-22T05:32:15.778Z,97850.59
2019-02-22T05:33:19.400Z,97860.02
2019-02-22T05:34:23.031Z,97855.66
2019-02-22T05:35:26.743Z,97851.20
2019-02-22T05:36:30.803Z,97856.56
2019-02-22T05:37:34.803Z,97854.14
2019-02-22T05:38:38.538Z,97859.41
2019-02-22T05:39:42.211Z,97850.58
2019-02-22T05:40:45.823Z,97853.72
2019-02-22T05:41:49.421Z,97846.91
2019-02-22T05:42:53.065Z,97845.98
2019-02-22T05:43:56.709Z,97850.16
2019-02-22T05:45:00.449Z,97850.03
2019-02-22T05:46:04.543Z,97847.29
2019-02-22T05:47:08.189Z,97852.05
2019-02-22T05:48:12.134Z,97851.72
2019-02-22T05:49:15.800Z,97849.13
2019-02-22T05:50:19.367Z,97849.72
2019-02-22T05:51:23.018Z,97847.09
2019-02-22T05:52:26.688Z,97844.75
2019-02-22T05:53:30.482Z,97844.94
2019-02-22T05:54:34.153Z,97840.56
2019-02-22T05:55:37.788Z,97838.53
2019-02-22T05:56:41.359Z,97834.78
2019-02-22T05:57:45.031Z,97835.33
2019-02-22T05:58:48.715Z,97832.17
2019-02-22T05:59:52.699Z,97832.49
2019-02-22T06:00:56.338Z,97832.23
2019-02-22T06:02:00.020Z,97841.91
2019-02-22T06:03:03.621Z,97847.18
2019-02-22T06:04:07.271Z,97842.48
2019-02-22T06:05:10.912Z,97840.25
2019-02-22T06:06:14.557Z,97837.94
2019-02-22T06:07:18.194Z,97842.95
2019-02-22T06:08:21.861Z,97843.78
2019-02-22T06:09:25.504Z,97839.69
2019-02-22T06:10:29.142Z,97842.84
2019-02-22T06:11:32.777Z,97830.11
2019-02-22T06:12:36.345Z,97832.05
2019-02-22T06:13:40.044Z,97831.02
2019-02-22T06:14:43.682Z,97824.56
2019-02-22T06:15:47.258Z,97829.42
2019-02-22T06:16:50.945Z,97826.76
2019-02-22T06:17:54.574Z,97828.25
2019-02-22T06:18:58.239Z,97825.62
2019-02-22T06:20:01.868Z,97824.73
2019-02-22T06:21:05.506Z,97824.63
2019-02-22T06:22:09.149Z,97826.19
2019-02-22T06:23:12.766Z,97826.03
2019-02-22T06:24:16.429Z,97817.61
2019-02-22T06:25:20.075Z,97817.78
2019-02-22T06:26:24.094Z,97812.80
2019-02-22T06:27:27.710Z,97804.75
2019-02-22T06:28:31.348Z,97807.59
2019-02-22T06:29:35.351Z,97809.19
2019-02-22T06:30:39.020Z,97806.13
2019-02-22T06:31:42.662Z,97806.06
2019-02-22T06:32:46.297Z,97802.16
2019-02-22T06:33:49.941Z,97802.39
2019-02-22T06:34:53.603Z,97797.13
2019-02-22T06:35:57.284Z,97796.16
2019-02-22T06:37:02.323Z,97797.33
2019-02-22T06:38:06.201Z,97800.32
2019-02-22T06:39:09.850Z,97804.34
2019-02-22T06:40:13.526Z,97802.81
2019-02-22T06:41:17.166Z,97811.38
2019-02-22T06:42:20.844Z,97807.81
2019-02-22T06:43:24.568Z,97809.80
2019-02-22T06:44:28.131Z,97798.08
2019-02-22T06:45:31.792Z,97803.71
2019-02-22T06:46:35.368Z,97802.38
2019-02-22T06:47:39.006Z,97798.20
2019-02-22T06:48:42.707Z,97795.05
2019-02-22T06:49:46.331Z,97797.16
2019-02-22T06:50:50.012Z,97799.29
2019-02-22T06:51:53.648Z,97796.52
2019-02-22T06:52:57.284Z,97804.55
2019-02-22T06:54:00.998Z,97801.12
2019-02-22T06:55:05.835Z,97798.42
2019-02-22T06:56:09.506Z,97792.84
2019-02-22T06:57:13.428Z,97794.55
2019-02-22T06:58:16.994Z,97798.33
2019-02-22T06:59:20.638Z,97796.21
2019-02-22T07:00:24.274Z,97797.38
2019-02-22T07:01:28.454Z,97796.77
2019-02-22T07:02:32.087Z,97790.55
2019-02-22T07:03:35.751Z,97788.36
2019-02-22T07:04:39.401Z,97791.56
2019-02-22T07:05:43.067Z,97794.46
2019-02-22T07:06:47.061Z,97795.48
2019-02-22T07:07:50.842Z,97788.42
2019-02-22T07:08:54.469Z,97787.95
2019-02-22T07:09:58.116Z,97787.80
2019-02-22T07:11:03.397Z,97785.02
2019-02-22T07:12:11.724Z,97782.66
2019-02-22T07:13:15.363Z,97784.55
2019-02-22T07:14:19.021Z,97781.66
2019-02-22T07:15:22.642Z,97778.69
2019-02-22T07:16:26.290Z,97777.89
2019-02-22T07:17:29.961Z,97775.00
2019-02-22T07:18:33.603Z,97774.72
2019-02-22T07:19:37.232Z,97775.48
2019-02-22T07:20:40.946Z,97774.01
2019-02-22T07:21:52.735Z,97766.92
2019-02-22T07:22:49.915Z,97772.97
2019-02-22T07:23:53.483Z,97775.41
2019-02-22T07:24:57.060Z,97770.92
2019-02-22T07:26:00.733Z,97768.87
2019-02-22T07:27:04.366Z,97772.70
2019-02-22T07:28:08.004Z,97769.56
2019-02-22T07:29:11.654Z,97771.97
2019-02-22T07:30:15.301Z,97766.18
2019-02-22T07:31:18.978Z,97763.84
2019-02-22T07:32:22.815Z,97766.98
2019-02-22T07:33:26.466Z,97762.77
2019-02-22T07:34:30.472Z,97759.87
2019-02-22T07:35:34.127Z,97756.45
2019-02-22T07:36:37.788Z,97750.39
2019-02-22T07:37:41.520Z,97756.20
2019-02-22T07:38:45.163Z,97753.86
2019-02-22T07:39:48.808Z,97746.73
2019-02-22T07:40:52.448Z,97746.77
2019-02-22T07:41:56.199Z,97743.91
2019-02-22T07:43:07.795Z,97741.03
2019-02-22T07:44:06.383Z,97751.38
2019-02-22T07:45:11.227Z,97746.11
2019-02-22T07:46:14.945Z,97742.38
2019-02-22T07:47:18.545Z,97742.88
2019-02-22T07:48:22.189Z,97743.67
2019-02-22T07:49:27.030Z,97737.84
2019-02-22T07:50:30.666Z,97738.14
2019-02-22T07:51:34.302Z,97738.94
2019-02-22T07:52:38.036Z,97739.48
2019-02-22T07:53:41.736Z,97731.81
2019-02-22T07:54:45.401Z,97741.34
2019-02-22T07:55:49.037Z,97741.35
2019-02-22T07:56:52.839Z,97742.94
2019-02-22T07:57:56.491Z,97741.38
2019-02-22T07:59:02.904Z,97741.66
2019-02-22T08:00:11.605Z,97739.51
2019-02-22T08:01:15.353Z,97734.74
2019-02-22T08:02:19.071Z,97735.55
2019-02-22T08:03:22.666Z,97733.14
2019-02-22T08:04:26.311Z,97725.47
2019-02-22T08:05:30.177Z,97731.30
2019-02-22T08:06:33.740Z,97729.97
2019-02-22T08:07:37.379Z,97728.11
2019-02-22T08:08:41.342Z,97724.17
2019-02-22T08:09:45.012Z,97723.39
2019-02-22T08:10:48.656Z,97724.20
2019-02-22T08:11:52.291Z,97715.47
2019-02-22T08:12:55.991Z,97718.90
2019-02-22T08:13:59.653Z,97716.27
2019-02-22T08:15:03.299Z,97719.17
2019-02-22T08:16:06.940Z,97717.56
2019-02-22T08:17:10.518Z,97717.55
2019-02-22T08:18:14.165Z,97714.91
2019-02-22T08:19:18.206Z,97718.34
2019-02-22T08:20:21.947Z,97718.30
2019-02-22T08:21:25.517Z,97706.30
2019-02-22T08:22:29.154Z,97706.23
2019-02-22T08:23:32.792Z,97706.50
2019-02-22T08:24:36.453Z,97700.46
2019-02-22T08:25:40.094Z,97705.55
2019-02-22T08:26:44.032Z,97705.53
2019-02-22T08:27:53.883Z,97696.21
2019-02-22T08:28:52.981Z,97700.21
2019-02-22T08:29:56.689Z,97687.19
2019-02-22T08:31:00.384Z,97694.30
2019-02-22T08:32:04.329Z,97689.95
2019-02-22T08:33:07.971Z,97686.72
2019-02-22T08:34:11.608Z,97683.26
2019-02-22T08:35:15.621Z,97677.92
2019-02-22T08:36:19.280Z,97680.05
2019-02-22T08:37:22.928Z,97678.69
2019-02-22T08:38:26.594Z,97680.58
2019-02-22T08:39:30.156Z,97671.86
2019-02-22T08:40:33.841Z,97674.86
2019-02-22T08:41:37.487Z,97677.01
2019-02-22T08:42:41.132Z,97668.52
2019-02-22T08:44:04.623Z,97668.01
2019-02-22T08:45:09.902Z,97666.13
2019-02-22T08:46:13.596Z,97665.93
2019-02-22T08:47:17.240Z,97664.08
2019-02-22T08:48:20.903Z,97665.19
2019-02-22T08:49:24.544Z,97663.61
2019-02-22T08:50:28.261Z,97664.41
2019-02-22T08:51:31.868Z,97670.52
2019-02-22T08:52:35.437Z,97667.05
2019-02-22T08:53:39.081Z,97667.61
2019-02-22T08:54:47.147Z,97660.66
2019-02-22T08:55:48.456Z,97659.80
2019-02-22T08:56:52.113Z,97660.80
2019-02-22T08:57:55.781Z,97662.94
2019-02-22T08:58:59.424Z,97658.69
2019-02-22T09:00:03.074Z,97654.14
2019-02-22T09:01:06.722Z,97653.11
2019-02-22T09:02:10.315Z,97656.32
2019-02-22T09:03:13.964Z,97650.50
2019-02-22T09:04:17.618Z,97647.89
2019-02-22T09:05:21.269Z,97651.05
2019-02-22T09:06:24.921Z,97651.88
2019-02-22T09:07:28.665Z,97646.77
2019-02-22T09:08:32.259Z,97648.86
2019-02-22T09:09:36.222Z,97647.55
2019-02-22T09:10:39.867Z,97641.66
2019-02-22T09:11:43.577Z,97640.57
2019-02-22T09:12:47.195Z,97629.62
2019-02-22T09:13:50.835Z,97630.66
2019-02-22T09:14:54.568Z,97632.21
2019-02-22T09:15:58.624Z,97629.32
2019-02-22T09:17:02.266Z,97633.34
2019-02-22T09:18:05.927Z,97635.23
2019-02-22T09:19:09.572Z,97639.86
2019-02-22T09:20:13.728Z,97637.22
2019-02-22T09:21:17.374Z,97641.47
2019-02-22T09:22:23.109Z,97633.27
2019-02-22T09:23:26.396Z,97639.05
2019-02-22T09:24:30.594Z,97638.02
2019-02-22T09:25:34.245Z,97641.77
2019-02-22T09:26:37.895Z,97642.83
2019-02-22T09:27:41.541Z,97640.67
2019-02-22T09:28:45.230Z,97637.67
2019-02-22T09:29:58.515Z,97641.40
2019-02-22T09:30:54.248Z,97635.49
2019-02-22T09:31:57.933Z,97629.62
2019-02-22T09:33:01.876Z,97627.53
2019-02-22T09:34:05.549Z,97639.53
2019-02-22T09:35:11.013Z,97639.03
2019-02-22T09:36:14.655Z,97634.57
2019-02-22T09:37:18.302Z,97639.91
2019-02-22T09:38:21.944Z,97641.23
2019-02-22T09:39:25.641Z,97639.11
2019-02-22T09:40:29.286Z,97641.18
2019-02-22T09:41:33.037Z,97639.56
2019-02-22T09:42:36.690Z,97648.63
2019-02-22T09:43:40.260Z,97642.01
2019-02-22T09:44:43.936Z,97636.66
2019-02-22T09:45:47.583Z,97637.73
2019-02-22T09:46:51.559Z,97635.09
2019-02-22T09:47:55.204Z,97634.09
2019-02-22T09:48:58.775Z,97633.00
2019-02-22T09:50:02.456Z,97629.26
2019-02-22T09:51:06.099Z,97631.27
2019-02-22T09:52:09.743Z,97627.16
2019-02-22T09:53:13.400Z,97625.50
2019-02-22T09:54:17.047Z,97625.00
2019-02-22T09:55:20.727Z,97622.84
2019-02-22T09:56:24.371Z,97616.47
2019-02-22T09:57:28.027Z,97613.43
2019-02-22T09:58:31.602Z,97609.58
2019-02-22T09:59:35.233Z,97611.25
2019-02-22T10:00:38.907Z,97613.94
2019-02-22T10:01:42.549Z,97610.11
2019-02-22T10:02:46.407Z,97602.34
2019-02-22T10:03:49.984Z,97610.27
2019-02-22T10:04:55.539Z,97607.37
2019-02-22T10:05:59.021Z,97603.00
2019-02-22T10:07:02.652Z,97598.20
2019-02-22T10:08:06.304Z,97594.92
2019-02-22T10:09:09.948Z,97590.61
2019-02-22T10:10:13.660Z,97593.44
2019-02-22T10:11:17.321Z,97583.05
2019-02-22T10:12:20.957Z,97580.92
2019-02-22T10:13:24.723Z,97577.25
2019-02-22T10:14:28.664Z,97572.23
2019-02-22T10:15:32.381Z,97576.67
2019-02-22T10:16:36.056Z,97571.08
2019-02-22T10:17:39.689Z,97569.14
2019-02-22T10:18:43.325Z,97562.39
2019-02-22T10:19:47.038Z,97556.32
2019-02-22T10:20:50.677Z,97557.16
2019-02-22T10:21:54.349Z,97551.64
2019-02-22T10:22:57.984Z,97553.03
2019-02-22T10:24:01.651Z,97551.31
2019-02-22T10:25:07.193Z,97543.66
2019-02-22T10:26:10.822Z,97544.63
2019-02-22T10:27:14.492Z,97542.91
2019-02-22T10:28:18.348Z,97542.41
2019-02-22T10:29:22.023Z,97538.31
2019-02-22T10:30:26.022Z,97535.41
2019-02-22T10:31:29.759Z,97528.59
2019-02-22T10:32:33.354Z,97534.00
2019-02-22T10:33:37.145Z,97529.50
2019-02-22T10:34:40.804Z,97518.88
2019-02-22T10:35:44.433Z,97517.65
2019-02-22T10:36:48.128Z,97518.05
2019-02-22T10:37:51.816Z,97515.59
2019-02-22T10:38:55.452Z,97510.80
2019-02-22T10:39:59.099Z,97509.09
2019-02-22T10:41:02.732Z,97506.02
2019-02-22T10:42:06.362Z,97505.52
2019-02-22T10:43:10.035Z,97505.23
2019-02-22T10:44:17.647Z,97504.58
2019-02-22T10:45:19.079Z,97511.31
2019-02-22T10:46:22.711Z,97511.00
2019-02-22T10:47:26.349Z,97508.86
2019-02-22T10:48:30.021Z,97506.92
2019-02-22T10:49:33.718Z,97503.50
2019-02-22T10:50:37.362Z,97497.97
2019-02-22T10:51:41.006Z,97496.47
2019-02-22T10:52:44.652Z,97494.41
2019-02-22T10:53:48.398Z,97490.60
2019-02-22T10:54:52.012Z,97495.80
2019-02-22T10:55:56.292Z,97485.45
2019-02-22T10:56:59.923Z,97480.98
2019-02-22T10:58:03.476Z,97492.16
2019-02-22T10:59:07.143Z,97485.20
2019-02-22T11:00:13.398Z,97484.95
2019-02-22T11:01:17.109Z,97486.32
2019-02-22T11:02:20.746Z,97480.40
2019-02-22T11:03:24.381Z,97480.19
2019-02-22T11:04:28.057Z,97472.94
2019-02-22T11:05:31.683Z,97469.30
2019-02-22T11:06:35.318Z,97471.31
2019-02-22T11:07:38.957Z,97472.74
2019-02-22T11:08:42.598Z,97468.66
2019-02-22T11:09:46.284Z,97461.74
2019-02-22T11:10:49.921Z,97463.94
2019-02-22T11:11:54.923Z,97463.20
2019-02-22T11:12:59.349Z,97463.45
2019-02-22T11:14:03.015Z,97462.11
2019-02-22T11:15:09.164Z,97458.10
2019-02-22T11:16:12.730Z,97456.64
2019-02-22T11:17:16.363Z,97452.03
2019-02-22T11:18:19.999Z,97457.62
2019-02-22T11:19:23.640Z,97459.19
2019-02-22T11:20:27.314Z,97456.35
2019-02-22T11:21:30.883Z,97456.72
2019-02-22T11:22:34.520Z,97459.39
2019-02-22T11:23:38.162Z,97453.34
2019-02-22T11:24:41.795Z,97455.32
2019-02-22T11:25:45.464Z,97457.95
2019-02-22T11:26:49.102Z,97460.27
2019-02-22T11:27:52.767Z,97445.58
2019-02-22T11:28:56.407Z,97453.77
2019-02-22T11:30:00.005Z,97448.57
2019-02-22T11:31:03.642Z,97444.86
2019-02-22T11:32:07.288Z,97438.80
2019-02-22T11:33:10.929Z,97448.47
2019-02-22T11:34:14.485Z,97443.48
2019-02-22T11:35:18.144Z,97445.66
2019-02-22T11:36:21.834Z,97445.03
2019-02-22T11:37:25.474Z,97445.96
2019-02-22T11:38:29.182Z,97444.25
2019-02-22T11:39:32.827Z,97441.84
2019-02-22T11:40:36.489Z,97441.63
2019-02-22T11:41:40.050Z,97439.06
2019-02-22T11:42:43.681Z,97441.56
2019-02-22T11:43:47.319Z,97442.00
2019-02-22T11:44:50.958Z,97436.05
2019-02-22T11:45:54.631Z,97441.83
2019-02-22T11:46:58.252Z,97437.03
2019-02-22T11:48:09.050Z,97439.98
2019-02-22T11:49:07.272Z,97438.00
2019-02-22T11:50:12.207Z,97438.98
2019-02-22T11:51:15.890Z,97433.20
2019-02-22T11:52:19.520Z,97431.51
2019-02-22T11:53:23.155Z,97433.59
2019-02-22T11:54:26.834Z,97431.34
2019-02-22T11:55:31.523Z,97435.06
2019-02-22T11:56:35.286Z,97427.05
2019-02-22T11:57:38.903Z,97434.01
2019-02-22T11:58:42.535Z,97431.53
2019-02-22T11:59:46.222Z,97424.11
2019-02-22T12:00:49.863Z,97429.20
2019-02-22T12:01:53.533Z,97422.41
2019-02-22T12:02:57.238Z,97424.25
2019-02-22T12:04:00.878Z,97424.25
2019-02-22T12:05:08.038Z,97427.42
2019-02-22T12:06:11.675Z,97423.45
2019-02-22T12:07:15.349Z,97423.86
2019-02-22T12:08:18.996Z,97424.69
2019-02-22T12:09:22.779Z,97423.17
2019-02-22T12:10:26.411Z,97427.16
2019-02-22T12:11:30.041Z,97422.15
2019-02-22T12:12:34.655Z,97421.70
2019-02-22T12:13:38.398Z,97422.25
2019-02-22T12:14:51.045Z,97420.98
2019-02-22T12:15:47.393Z,97421.76
2019-02-22T12:16:51.037Z,97421.31
2019-02-22T12:17:54.654Z,97426.39
2019-02-22T12:18:58.289Z,97417.81
2019-02-22T12:20:01.952Z,97415.15
2019-02-22T12:21:05.592Z,97414.30
2019-02-22T12:22:09.236Z,97414.55
2019-02-22T12:23:13.961Z,97406.95
2019-02-22T12:24:17.654Z,97407.30
2019-02-22T12:25:21.300Z,97407.52
2019-02-22T12:26:24.944Z,97406.45
2019-02-22T12:27:28.581Z,97401.97
2019-02-22T12:28:32.270Z,97404.38
2019-02-22T12:29:35.901Z,97398.29
2019-02-22T12:30:39.532Z,97396.48